Time;durP1;ratioP1;P1;durP2;ratioP2;P2;SDS_P1;SDS_P2;PMS_P1;PMS_P2;Temp;Humidity;BMP_temperature;BMP_pressure;BME280_temperature;BME280_humidity;BME280_pressure;Samples;Min_cycle;Max_cycle;Signal;HPM_P1;HPM_P2
2023/08/02 00:02:02;;;;;;;0.20;0.20;;;;;;;;;;5148850;27;20043;-42
2023/08/02 00:04:27;;;;;;;0.20;0.20;;;;;;;;;;5146118;27;20062;-43
2023/08/02 00:06:53;;;;;;;0.10;0.10;;;;;;;;;;5151141;27;20047;-43
2023/08/02 00:09:19;;;;;;;0.10;0.10;;;;;;;;;;5152407;27;20078;-42
2023/08/02 00:11:44;;;;;;;0.20;0.20;;;;;;;;;;5147016;27;20051;-43
2023/08/02 00:14:10;;;;;;;0.20;0.20;;;;;;;;;;5146276;27;20090;-42
2023/08/02 00:16:35;;;;;;;0.20;0.20;;;;;;;;;;5154696;27;20552;-43
2023/08/02 00:19:02;;;;;;;0.10;0.10;;;;;;;;;;5155209;27;20049;-42
2023/08/02 00:21:27;;;;;;;0.13;0.13;;;;;;;;;;5118272;28;20111;-44
2023/08/02 00:23:53;;;;;;;0.10;0.10;;;;;;;;;;5138853;27;20079;-44
2023/08/02 00:26:19;;;;;;;0.10;0.10;;;;;;;;;;5134110;28;20054;-42
2023/08/02 00:28:44;;;;;;;0.10;0.10;;;;;;;;;;5134206;28;20051;-44
2023/08/02 00:31:10;;;;;;;0.10;0.10;;;;;;;;;;5145882;27;20121;-42
2023/08/02 00:33:35;;;;;;;0.10;0.10;;;;;;;;;;5147174;27;20088;-45
2023/08/02 00:36:01;;;;;;;0.10;0.10;;;;;;;;;;5136462;27;20062;-44
2023/08/02 00:38:26;;;;;;;0.13;0.13;;;;;;;;;;5135547;27;20062;-40
2023/08/02 00:40:52;;;;;;;0.20;0.20;;;;;;;;;;5136390;27;20039;-40
2023/08/02 00:43:18;;;;;;;0.17;0.17;;;;;;;;;;5134025;28;20051;-42
2023/08/02 00:45:44;;;;;;;0.13;0.13;;;;;;;;;;5133839;28;20479;-40
2023/08/02 00:48:09;;;;;;;0.20;0.20;;;;;;;;;;5133721;28;20088;-43
2023/08/02 00:50:35;;;;;;;0.10;0.10;;;;;;;;;;5133909;27;20065;-45
2023/08/02 00:53:02;;;;;;;0.20;0.20;;;;;;;;;;5134458;28;20054;-44
2023/08/02 00:55:27;;;;;;;0.20;0.20;;;;;;;;;;5134093;27;20047;-43
2023/08/02 00:57:53;;;;;;;0.10;0.10;;;;;;;;;;5143638;27;20054;-41
2023/08/02 01:00:19;;;;;;;0.10;0.10;;;;;;;;;;5154529;27;20517;-44
2023/08/02 01:02:44;;;;;;;0.10;0.10;;;;;;;;;;5151063;27;20051;-41
2023/08/02 01:05:10;;;;;;;0.10;0.10;;;;;;;;;;5134049;27;20049;-41
2023/08/02 01:07:43;;;;;;;0.20;0.20;;;;;;;;;;5134121;28;20051;-42
2023/08/02 01:10:11;;;;;;;0.20;0.20;;;;;;;;;;5141518;27;20050;-42
2023/08/02 01:12:37;;;;;;;0.10;0.10;;;;;;;;;;5154361;27;20046;-42
2023/08/02 01:15:05;;;;;;;0.10;0.10;;;;;;;;;;5147708;27;20411;-42
2023/08/02 01:17:31;;;;;;;0.20;0.20;;;;;;;;;;5133533;28;20046;-44
2023/08/02 01:20:04;;;;;;;0.20;0.20;;;;;;;;;;5135400;27;20505;-43
2023/08/02 01:22:30;;;;;;;0.10;0.10;;;;;;;;;;5153436;27;20527;-40
2023/08/02 01:24:59;;;;;;;0.10;0.10;;;;;;;;;;5153451;27;20055;-42
2023/08/02 01:27:26;;;;;;;0.10;0.10;;;;;;;;;;5153274;27;20459;-42
2023/08/02 01:29:51;;;;;;;0.10;0.10;;;;;;;;;;5154188;27;20493;-41
2023/08/02 01:32:18;;;;;;;0.10;0.10;;;;;;;;;;5153930;27;20085;-41
2023/08/02 01:34:43;;;;;;;0.10;0.10;;;;;;;;;;5152006;27;20035;-43
2023/08/02 01:37:09;;;;;;;0.10;0.10;;;;;;;;;;5149467;27;20063;-44
2023/08/02 01:39:34;;;;;;;0.10;0.10;;;;;;;;;;5136481;27;20059;-41
2023/08/02 01:42:00;;;;;;;0.20;0.20;;;;;;;;;;5143548;27;20479;-43
2023/08/02 01:44:25;;;;;;;0.20;0.20;;;;;;;;;;5153638;27;20054;-44
2023/08/02 01:46:51;;;;;;;0.10;0.10;;;;;;;;;;5153452;27;20051;-43
2023/08/02 01:49:16;;;;;;;0.10;0.10;;;;;;;;;;5153744;27;20054;-42
2023/08/02 01:51:42;;;;;;;0.10;0.10;;;;;;;;;;5153419;27;20047;-43
2023/08/02 01:54:07;;;;;;;0.10;0.10;;;;;;;;;;5153697;27;20108;-42
2023/08/02 01:56:33;;;;;;;0.20;0.20;;;;;;;;;;5153718;27;20483;-43
2023/08/02 01:58:58;;;;;;;0.20;0.20;;;;;;;;;;5148820;27;20043;-43
2023/08/02 02:01:24;;;;;;;0.10;0.10;;;;;;;;;;5139169;27;20055;-42
2023/08/02 02:03:50;;;;;;;0.20;0.20;;;;;;;;;;5132917;27;20051;-43
2023/08/02 02:06:15;;;;;;;0.15;0.15;;;;;;;;;;5147472;27;20042;-45
2023/08/02 02:08:41;;;;;;;0.10;0.10;;;;;;;;;;5152620;27;20531;-41
2023/08/02 02:11:07;;;;;;;0.10;0.10;;;;;;;;;;5148062;27;20054;-43
2023/08/02 02:13:33;;;;;;;0.20;0.20;;;;;;;;;;5132652;27;20043;-42
2023/08/02 02:15:58;;;;;;;0.10;0.10;;;;;;;;;;5132370;27;20072;-43
2023/08/02 02:18:24;;;;;;;0.10;0.10;;;;;;;;;;5132426;27;20051;-42
2023/08/02 02:20:49;;;;;;;0.10;0.10;;;;;;;;;;5141499;27;20042;-45
2023/08/02 02:23:15;;;;;;;0.20;0.20;;;;;;;;;;5148077;27;20054;-44
2023/08/02 02:25:40;;;;;;;0.10;0.10;;;;;;;;;;5131544;27;20293;-42
2023/08/02 02:28:06;;;;;;;0.10;0.10;;;;;;;;;;5142511;27;20551;-42
2023/08/02 02:30:32;;;;;;;0.10;0.10;;;;;;;;;;5153124;27;20483;-61
2023/08/02 02:32:57;;;;;;;0.10;0.10;;;;;;;;;;5152640;27;20054;-60
2023/08/02 02:35:23;;;;;;;0.10;0.10;;;;;;;;;;5140266;27;20452;-60
2023/08/02 02:37:50;;;;;;;0.10;0.10;;;;;;;;;;5134236;27;20047;-60
2023/08/02 02:40:15;;;;;;;0.20;0.20;;;;;;;;;;5136903;27;20043;-60
2023/08/02 02:42:41;;;;;;;0.10;0.10;;;;;;;;;;5149918;27;20083;-60
2023/08/02 02:45:07;;;;;;;0.10;0.10;;;;;;;;;;5131702;27;20043;-60
2023/08/02 02:47:32;;;;;;;0.20;0.20;;;;;;;;;;5131444;28;20051;-60
2023/08/02 02:49:58;;;;;;;0.20;0.20;;;;;;;;;;5115150;27;20039;-60
2023/08/02 02:52:23;;;;;;;0.10;0.10;;;;;;;;;;5152689;27;20050;-60
2023/08/02 02:54:49;;;;;;;0.10;0.10;;;;;;;;;;5152675;27;20049;-60
2023/08/02 02:57:15;;;;;;;0.10;0.10;;;;;;;;;;5152656;27;20062;-61
2023/08/02 02:59:40;;;;;;;0.20;0.20;;;;;;;;;;5152314;27;20051;-60
2023/08/02 03:02:06;;;;;;;0.10;0.10;;;;;;;;;;5135110;27;20074;-60
2023/08/02 03:04:31;;;;;;;0.10;0.10;;;;;;;;;;5132001;27;20498;-60
2023/08/02 03:06:57;;;;;;;0.10;0.10;;;;;;;;;;5137613;27;20096;-60
2023/08/02 03:09:23;;;;;;;0.10;0.10;;;;;;;;;;5131779;28;20103;-60
2023/08/02 03:11:48;;;;;;;0.30;0.22;;;;;;;;;;5148439;27;20468;-60
2023/08/02 03:14:14;;;;;;;0.10;0.10;;;;;;;;;;5143242;27;20069;-60
2023/08/02 03:16:43;;;;;;;0.17;0.17;;;;;;;;;;5151692;27;20043;-61
2023/08/02 03:19:10;;;;;;;0.20;0.20;;;;;;;;;;5149550;27;20046;-60
2023/08/02 03:21:35;;;;;;;0.10;0.10;;;;;;;;;;5151764;27;20682;-60
2023/08/02 03:24:01;;;;;;;0.10;0.10;;;;;;;;;;5152354;27;20138;-61
2023/08/02 03:26:26;;;;;;;0.10;0.10;;;;;;;;;;5141801;27;20480;-60
2023/08/02 03:28:52;;;;;;;0.20;0.20;;;;;;;;;;5131823;27;20048;-60
2023/08/02 03:31:17;;;;;;;0.15;0.15;;;;;;;;;;5144761;27;20355;-60
2023/08/02 03:33:43;;;;;;;0.13;0.13;;;;;;;;;;5151697;27;20436;-60
2023/08/02 03:36:08;;;;;;;0.20;0.20;;;;;;;;;;5132898;27;20054;-59
2023/08/02 03:38:34;;;;;;;0.20;0.20;;;;;;;;;;5133061;27;20054;-60
2023/08/02 03:40:59;;;;;;;0.10;0.10;;;;;;;;;;5140011;27;20065;-60
2023/08/02 03:43:25;;;;;;;0.20;0.20;;;;;;;;;;5133464;27;20050;-61
2023/08/02 03:45:51;;;;;;;0.10;0.10;;;;;;;;;;5146799;27;20404;-60
2023/08/02 03:48:16;;;;;;;0.10;0.10;;;;;;;;;;5152134;27;20046;-60
2023/08/02 03:50:42;;;;;;;0.15;0.15;;;;;;;;;;5151681;27;20129;-60
2023/08/02 03:53:08;;;;;;;0.10;0.10;;;;;;;;;;5152172;27;20047;-60
2023/08/02 03:55:33;;;;;;;0.17;0.17;;;;;;;;;;5152256;27;20095;-60
2023/08/02 03:57:59;;;;;;;0.20;0.20;;;;;;;;;;5151919;27;20073;-60
2023/08/02 04:00:24;;;;;;;0.20;0.20;;;;;;;;;;5151782;27;20042;-60
2023/08/02 04:02:50;;;;;;;0.10;0.10;;;;;;;;;;5146198;27;20133;-60
2023/08/02 04:05:15;;;;;;;0.20;0.20;;;;;;;;;;5146712;27;20392;-60
2023/08/02 04:07:41;;;;;;;0.20;0.20;;;;;;;;;;5151400;27;20475;-60
2023/08/02 04:10:07;;;;;;;0.10;0.10;;;;;;;;;;5134993;27;20058;-60
2023/08/02 04:12:32;;;;;;;0.10;0.10;;;;;;;;;;5151462;27;20050;-60
2023/08/02 04:14:58;;;;;;;0.10;0.10;;;;;;;;;;5148472;27;20061;-61
2023/08/02 04:17:25;;;;;;;0.10;0.10;;;;;;;;;;5130664;27;20058;-61
2023/08/02 04:19:51;;;;;;;0.20;0.20;;;;;;;;;;5130619;27;20044;-60
2023/08/02 04:22:16;;;;;;;0.10;0.10;;;;;;;;;;5131871;27;20057;-60
2023/08/02 04:24:42;;;;;;;0.20;0.20;;;;;;;;;;5151818;27;20126;-60
2023/08/02 04:27:07;;;;;;;0.15;0.15;;;;;;;;;;5148467;27;20055;-60
2023/08/02 04:29:33;;;;;;;0.10;0.10;;;;;;;;;;5132594;27;20050;-61
2023/08/02 04:31:58;;;;;;;0.10;0.10;;;;;;;;;;5151392;27;20146;-59
2023/08/02 04:34:24;;;;;;;0.20;0.20;;;;;;;;;;5134900;28;20058;-59
2023/08/02 04:36:51;;;;;;;0.10;0.10;;;;;;;;;;5134452;28;20443;-60
2023/08/02 04:39:16;;;;;;;0.20;0.20;;;;;;;;;;5151278;27;20046;-60
2023/08/02 04:41:42;;;;;;;0.10;0.10;;;;;;;;;;5149800;27;20043;-60
2023/08/02 04:44:07;;;;;;;0.10;0.10;;;;;;;;;;5148381;27;20538;-60
2023/08/02 04:46:33;;;;;;;0.20;0.20;;;;;;;;;;5153191;27;20050;-60
2023/08/02 04:48:58;;;;;;;0.10;0.10;;;;;;;;;;5155174;27;20521;-60
2023/08/02 04:51:24;;;;;;;0.10;0.10;;;;;;;;;;5149819;27;20074;-60
2023/08/02 04:53:49;;;;;;;0.10;0.10;;;;;;;;;;5144919;27;20047;-60
2023/08/02 04:56:15;;;;;;;0.10;0.10;;;;;;;;;;5138464;27;20043;-60
2023/08/02 04:58:41;;;;;;;0.13;0.13;;;;;;;;;;5137043;27;20079;-60
2023/08/02 05:01:07;;;;;;;0.10;0.10;;;;;;;;;;5142753;27;20195;-60
2023/08/02 05:03:33;;;;;;;0.10;0.10;;;;;;;;;;5144024;27;20519;-60
2023/08/02 05:05:59;;;;;;;0.10;0.10;;;;;;;;;;5138919;27;20107;-61
2023/08/02 05:08:25;;;;;;;0.10;0.10;;;;;;;;;;5140564;27;20047;-60
2023/08/02 05:10:50;;;;;;;0.20;0.20;;;;;;;;;;5142619;27;20074;-60
2023/08/02 05:13:16;;;;;;;0.10;0.10;;;;;;;;;;5137956;27;20155;-52
2023/08/02 05:15:41;;;;;;;0.10;0.10;;;;;;;;;;5139972;27;20039;-52
2023/08/02 05:18:07;;;;;;;0.10;0.10;;;;;;;;;;5137185;27;20047;-51
2023/08/02 05:20:33;;;;;;;0.20;0.20;;;;;;;;;;5134260;27;20047;-52
2023/08/02 05:22:59;;;;;;;0.10;0.10;;;;;;;;;;5137395;27;20130;-51
2023/08/02 05:25:32;;;;;;;0.10;0.10;;;;;;;;;;5131049;27;20388;-52
2023/08/02 05:27:58;;;;;;;0.17;0.17;;;;;;;;;;5137721;27;20107;-52
2023/08/02 05:30:24;;;;;;;0.10;0.10;;;;;;;;;;5135284;27;20047;-52
2023/08/02 05:32:49;;;;;;;0.20;0.20;;;;;;;;;;5141063;27;20530;-52
2023/08/02 05:35:15;;;;;;;0.13;0.13;;;;;;;;;;5137628;27;20526;-52
2023/08/02 05:37:40;;;;;;;0.10;0.10;;;;;;;;;;5140827;27;20046;-52
2023/08/02 05:40:06;;;;;;;0.20;0.20;;;;;;;;;;5143951;27;20058;-51
2023/08/02 05:42:32;;;;;;;0.10;0.10;;;;;;;;;;5135119;27;21000;-53
2023/08/02 05:44:57;;;;;;;0.20;0.20;;;;;;;;;;5141594;27;20059;-52
2023/08/02 05:47:23;;;;;;;0.10;0.10;;;;;;;;;;5135437;27;20045;-48
2023/08/02 05:49:48;;;;;;;0.10;0.10;;;;;;;;;;5141030;27;20067;-52
2023/08/02 05:52:14;;;;;;;0.10;0.10;;;;;;;;;;5131655;27;20285;-54
2023/08/02 05:54:40;;;;;;;0.20;0.20;;;;;;;;;;5138184;27;20407;-55
2023/08/02 05:57:07;;;;;;;0.20;0.20;;;;;;;;;;5129206;27;20054;-54
2023/08/02 05:59:32;;;;;;;0.20;0.20;;;;;;;;;;5129790;27;20573;-55
2023/08/02 06:01:58;;;;;;;0.10;0.10;;;;;;;;;;5131409;27;20168;-55
2023/08/02 06:04:23;;;;;;;0.10;0.10;;;;;;;;;;5128632;27;20051;-55
2023/08/02 06:06:49;;;;;;;0.10;0.10;;;;;;;;;;5132265;27;20050;-54
2023/08/02 06:09:15;;;;;;;0.20;0.20;;;;;;;;;;5137357;27;20062;-55
2023/08/02 06:11:40;;;;;;;0.13;0.13;;;;;;;;;;5129279;27;20485;-54
2023/08/02 06:14:06;;;;;;;0.10;0.10;;;;;;;;;;5133632;27;21097;-55
2023/08/02 06:16:32;;;;;;;0.10;0.10;;;;;;;;;;5134721;27;20142;-55
2023/08/02 06:18:58;;;;;;;0.20;0.20;;;;;;;;;;5133330;27;20192;-55
2023/08/02 06:21:23;;;;;;;0.17;0.17;;;;;;;;;;5139624;27;20047;-55
2023/08/02 06:23:49;;;;;;;0.10;0.10;;;;;;;;;;5129431;27;20099;-54
2023/08/02 06:26:15;;;;;;;0.20;0.20;;;;;;;;;;5132279;27;20055;-55
2023/08/02 06:28:41;;;;;;;0.10;0.10;;;;;;;;;;5134673;27;20035;-55
2023/08/02 06:31:06;;;;;;;0.30;0.30;;;;;;;;;;5133516;27;20047;-55
2023/08/02 06:33:32;;;;;;;0.10;0.10;;;;;;;;;;5136999;27;20039;-55
2023/08/02 06:35:57;;;;;;;0.10;0.10;;;;;;;;;;5139136;27;20078;-55
2023/08/02 06:38:23;;;;;;;0.10;0.10;;;;;;;;;;5137663;27;20068;-54
2023/08/02 06:40:49;;;;;;;0.13;0.13;;;;;;;;;;5131826;27;20066;-54
2023/08/02 06:43:14;;;;;;;0.20;0.20;;;;;;;;;;5138530;27;20072;-54
2023/08/02 06:45:47;;;;;;;0.20;0.20;;;;;;;;;;5132318;27;20042;-55
2023/08/02 06:48:13;;;;;;;0.10;0.10;;;;;;;;;;5137009;27;20447;-55
2023/08/02 06:50:38;;;;;;;0.10;0.10;;;;;;;;;;5135209;27;20054;-55
2023/08/02 06:53:05;;;;;;;0.20;0.20;;;;;;;;;;5136312;27;20047;-55
2023/08/02 06:55:30;;;;;;;0.10;0.10;;;;;;;;;;5136166;27;20081;-54
2023/08/02 06:57:56;;;;;;;0.20;0.20;;;;;;;;;;5140393;27;20498;-55
2023/08/02 07:00:22;;;;;;;0.10;0.10;;;;;;;;;;5134263;27;20099;-54
2023/08/02 07:02:47;;;;;;;0.20;0.20;;;;;;;;;;5133724;27;20074;-55
2023/08/02 07:05:13;;;;;;;0.17;0.17;;;;;;;;;;5131683;27;21323;-54
2023/08/02 07:07:39;;;;;;;0.20;0.20;;;;;;;;;;5132230;27;20505;-54
2023/08/02 07:10:04;;;;;;;0.20;0.20;;;;;;;;;;5136169;27;20047;-54
2023/08/02 07:12:30;;;;;;;0.20;0.20;;;;;;;;;;5128174;27;20142;-56
2023/08/02 07:14:55;;;;;;;0.20;0.20;;;;;;;;;;5128430;27;20043;-55
2023/08/02 07:17:21;;;;;;;0.20;0.20;;;;;;;;;;5131656;27;20058;-55
2023/08/02 07:19:47;;;;;;;0.10;0.10;;;;;;;;;;5144205;27;20138;-56
2023/08/02 07:22:17;;;;;;;0.20;0.20;;;;;;;;;;5133227;27;20090;-55
2023/08/02 07:24:43;;;;;;;0.20;0.20;;;;;;;;;;5129795;27;20039;-54
2023/08/02 07:27:10;;;;;;;0.20;0.20;;;;;;;;;;5134421;27;20087;-55
2023/08/02 07:29:35;;;;;;;0.20;0.20;;;;;;;;;;5140867;27;20042;-55
2023/08/02 07:32:01;;;;;;;0.17;0.17;;;;;;;;;;5140064;27;20103;-55
2023/08/02 07:34:26;;;;;;;0.10;0.10;;;;;;;;;;5135208;27;20043;-54
2023/08/02 07:36:52;;;;;;;0.15;0.15;;;;;;;;;;5133862;27;20074;-54
2023/08/02 07:39:17;;;;;;;0.10;0.10;;;;;;;;;;5138140;27;20047;-54
2023/08/02 07:41:43;;;;;;;0.13;0.13;;;;;;;;;;5136834;27;20047;-55
2023/08/02 07:44:09;;;;;;;0.20;0.20;;;;;;;;;;5136609;27;20090;-54
2023/08/02 07:46:35;;;;;;;0.10;0.10;;;;;;;;;;5128909;27;20047;-53
2023/08/02 07:49:03;;;;;;;0.10;0.10;;;;;;;;;;5127871;27;20483;-55
2023/08/02 07:51:29;;;;;;;0.20;0.20;;;;;;;;;;5128089;27;20046;-54
2023/08/02 07:53:54;;;;;;;0.15;0.15;;;;;;;;;;5124701;27;20130;-54
2023/08/02 07:56:21;;;;;;;0.15;0.15;;;;;;;;;;5126954;27;20494;-53
2023/08/02 07:58:46;;;;;;;0.10;0.10;;;;;;;;;;5130233;27;20051;-53
2023/08/02 08:01:12;;;;;;;0.13;0.13;;;;;;;;;;5134101;27;20400;-51
2023/08/02 08:03:38;;;;;;;0.20;0.20;;;;;;;;;;5129270;27;20043;-53
2023/08/02 08:06:20;;;;;;;0.10;0.10;;;;;;;;;;5136017;27;20487;-53
2023/08/02 08:08:48;;;;;;;0.10;0.10;;;;;;;;;;5137834;27;20066;-53
2023/08/02 08:11:13;;;;;;;0.17;0.17;;;;;;;;;;5136419;27;20038;-53
2023/08/02 08:13:39;;;;;;;0.20;0.20;;;;;;;;;;5134686;27;20050;-53
2023/08/02 08:16:04;;;;;;;0.20;0.20;;;;;;;;;;5135021;27;20183;-53
2023/08/02 08:18:31;;;;;;;0.10;0.10;;;;;;;;;;5137157;27;20516;-53
2023/08/02 08:20:57;;;;;;;0.10;0.10;;;;;;;;;;5132220;27;20050;-55
2023/08/02 08:23:22;;;;;;;0.20;0.20;;;;;;;;;;5133275;27;20126;-55
2023/08/02 08:25:48;;;;;;;0.20;0.20;;;;;;;;;;5137178;27;20111;-55
2023/08/02 08:28:13;;;;;;;0.20;0.20;;;;;;;;;;5129170;27;20104;-55
2023/08/02 08:30:39;;;;;;;0.20;0.20;;;;;;;;;;5134471;27;20130;-55
2023/08/02 08:33:04;;;;;;;0.20;0.20;;;;;;;;;;5132675;27;20043;-57
2023/08/02 08:35:32;;;;;;;0.13;0.13;;;;;;;;;;5136786;27;20039;-52
2023/08/02 08:37:58;;;;;;;0.10;0.10;;;;;;;;;;5135549;27;20124;-53
2023/08/02 08:40:24;;;;;;;0.20;0.20;;;;;;;;;;5131421;27;20051;-52
2023/08/02 08:42:50;;;;;;;0.17;0.17;;;;;;;;;;5134573;27;20051;-52
2023/08/02 08:45:17;;;;;;;0.20;0.20;;;;;;;;;;5134812;27;20423;-52
2023/08/02 08:47:44;;;;;;;0.28;0.28;;;;;;;;;;5141565;27;20043;-53
2023/08/02 08:50:10;;;;;;;0.20;0.20;;;;;;;;;;5137184;27;20141;-53
2023/08/02 08:52:35;;;;;;;0.20;0.20;;;;;;;;;;5139429;27;20039;-52
2023/08/02 08:55:02;;;;;;;0.10;0.10;;;;;;;;;;5138465;27;20043;-53
2023/08/02 08:57:30;;;;;;;0.20;0.20;;;;;;;;;;5139200;27;20070;-53
2023/08/02 08:59:56;;;;;;;0.20;0.20;;;;;;;;;;5137472;27;20103;-52
2023/08/02 09:02:22;;;;;;;0.20;0.20;;;;;;;;;;5138124;27;20043;-53
2023/08/02 09:04:48;;;;;;;0.10;0.10;;;;;;;;;;5136953;27;20403;-53
2023/08/02 09:07:14;;;;;;;0.10;0.10;;;;;;;;;;5135292;27;20080;-50
2023/08/02 09:09:40;;;;;;;0.20;0.20;;;;;;;;;;5136200;27;20036;-53
2023/08/02 09:12:05;;;;;;;0.20;0.20;;;;;;;;;;5137476;27;20049;-54
2023/08/02 09:14:31;;;;;;;0.10;0.10;;;;;;;;;;5129914;27;20046;-53
2023/08/02 09:16:57;;;;;;;0.20;0.20;;;;;;;;;;5139520;27;20583;-53
2023/08/02 09:19:24;;;;;;;0.20;0.20;;;;;;;;;;5135866;27;20046;-52
2023/08/02 09:22:10;;;;;;;0.20;0.20;;;;;;;;;;5137647;27;20039;-52
2023/08/02 09:24:36;;;;;;;0.17;0.17;;;;;;;;;;5120526;27;20053;-53
2023/08/02 09:27:03;;;;;;;0.10;0.10;;;;;;;;;;5137140;27;20107;-51
2023/08/02 09:29:45;;;;;;;0.20;0.20;;;;;;;;;;5127880;27;20562;-53
2023/08/02 09:32:11;;;;;;;0.20;0.20;;;;;;;;;;5111310;27;20052;-53
2023/08/02 09:34:41;;;;;;;0.20;0.20;;;;;;;;;;5137738;27;20095;-52
2023/08/02 09:37:08;;;;;;;0.20;0.20;;;;;;;;;;5136725;27;20047;-54
2023/08/02 09:39:33;;;;;;;0.20;0.20;;;;;;;;;;5129881;27;20102;-52
2023/08/02 09:42:14;;;;;;;0.10;0.10;;;;;;;;;;5135647;27;20181;-52
2023/08/02 09:44:41;;;;;;;0.20;0.20;;;;;;;;;;5139179;27;20035;-51
2023/08/02 09:47:07;;;;;;;0.20;0.20;;;;;;;;;;5139212;27;20051;-54
2023/08/02 09:49:32;;;;;;;0.20;0.20;;;;;;;;;;5140329;27;20134;-53
2023/08/02 09:51:58;;;;;;;0.10;0.10;;;;;;;;;;5133884;27;20347;-53
2023/08/02 09:54:24;;;;;;;0.20;0.20;;;;;;;;;;5137418;27;20054;-53
2023/08/02 09:56:50;;;;;;;0.10;0.10;;;;;;;;;;5138318;27;20523;-53
2023/08/02 09:59:17;;;;;;;0.10;0.10;;;;;;;;;;5145200;27;20495;-53
2023/08/02 10:01:43;;;;;;;0.20;0.20;;;;;;;;;;5135718;27;20043;-52
2023/08/02 10:04:11;;;;;;;0.10;0.10;;;;;;;;;;5134648;27;20543;-51
2023/08/02 10:06:42;;;;;;;0.20;0.20;;;;;;;;;;5138430;27;20042;-53
2023/08/02 10:09:08;;;;;;;0.10;0.10;;;;;;;;;;5140078;27;20197;-55
2023/08/02 10:11:39;;;;;;;0.20;0.20;;;;;;;;;;5140700;27;20039;-54
2023/08/02 10:14:05;;;;;;;0.10;0.10;;;;;;;;;;5138094;27;20043;-53
2023/08/02 10:16:31;;;;;;;0.20;0.20;;;;;;;;;;5135808;27;20079;-53
2023/08/02 10:18:58;;;;;;;0.10;0.10;;;;;;;;;;5133425;27;20051;-53
2023/08/02 10:21:24;;;;;;;0.10;0.10;;;;;;;;;;5132492;27;20510;-52
2023/08/02 10:23:49;;;;;;;0.10;0.10;;;;;;;;;;5126703;27;20042;-53
2023/08/02 10:26:15;;;;;;;0.15;0.15;;;;;;;;;;5137715;27;20055;-52
2023/08/02 10:28:42;;;;;;;0.20;0.20;;;;;;;;;;5134648;27;20071;-52
2023/08/02 10:31:09;;;;;;;0.20;0.20;;;;;;;;;;5136291;27;20050;-51
2023/08/02 10:33:34;;;;;;;0.10;0.10;;;;;;;;;;5143116;27;20092;-53
2023/08/02 10:36:01;;;;;;;0.10;0.10;;;;;;;;;;5137288;27;20435;-53
2023/08/02 10:38:30;;;;;;;0.17;0.17;;;;;;;;;;5122225;27;20047;-53
2023/08/02 10:41:04;;;;;;;0.10;0.10;;;;;;;;;;5143341;27;20042;-53
2023/08/02 10:43:29;;;;;;;0.10;0.10;;;;;;;;;;5119662;27;20043;-53
2023/08/02 10:46:15;;;;;;;0.10;0.10;;;;;;;;;;5140928;27;20038;-52
2023/08/02 10:48:41;;;;;;;0.20;0.20;;;;;;;;;;5119019;27;20082;-52
2023/08/02 10:51:26;;;;;;;0.20;0.20;;;;;;;;;;5134701;27;20067;-54
2023/08/02 10:54:12;;;;;;;0.20;0.20;;;;;;;;;;5118496;27;20074;-51
2023/08/02 10:59:30;;;;;;;0.20;0.20;;;;;;;;;;5178367;27;20210;-51
2023/08/02 11:01:56;;;;;;;0.10;0.10;;;;;;;;;;5136852;27;20081;-52
2023/08/02 11:04:23;;;;;;;0.20;0.20;;;;;;;;;;5139057;27;20043;-53
2023/08/02 11:06:48;;;;;;;0.20;0.20;;;;;;;;;;5131843;27;20046;-52
2023/08/02 11:09:14;;;;;;;0.13;0.13;;;;;;;;;;5140741;27;20050;-54
2023/08/02 11:11:39;;;;;;;0.20;0.20;;;;;;;;;;5127396;27;20166;-53
2023/08/02 11:14:05;;;;;;;0.10;0.10;;;;;;;;;;5131383;27;20555;-53
2023/08/02 11:16:31;;;;;;;0.20;0.20;;;;;;;;;;5135348;27;20183;-52
2023/08/02 11:19:00;;;;;;;0.20;0.20;;;;;;;;;;5138375;27;20070;-54
2023/08/02 11:21:26;;;;;;;0.17;0.17;;;;;;;;;;5139635;27;20047;-54
2023/08/02 11:23:59;;;;;;;0.10;0.10;;;;;;;;;;5136229;27;20092;-54
2023/08/02 11:26:27;;;;;;;0.10;0.10;;;;;;;;;;5139738;27;20043;-53
2023/08/02 11:29:12;;;;;;;0.10;0.10;;;;;;;;;;5129620;27;20040;-53
2023/08/02 11:31:38;;;;;;;0.20;0.20;;;;;;;;;;5139045;27;20043;-54
2023/08/02 11:34:04;;;;;;;0.20;0.20;;;;;;;;;;5139030;27;20095;-53
2023/08/02 11:36:31;;;;;;;0.10;0.10;;;;;;;;;;5137707;27;20047;-53
2023/08/02 11:38:57;;;;;;;0.10;0.10;;;;;;;;;;5139975;27;20055;-52
2023/08/02 11:41:23;;;;;;;0.10;0.10;;;;;;;;;;5140301;27;20079;-52
2023/08/02 11:43:49;;;;;;;0.10;0.10;;;;;;;;;;5142158;27;20527;-50
2023/08/02 11:46:21;;;;;;;0.20;0.20;;;;;;;;;;5145707;27;20049;-53
2023/08/02 11:48:47;;;;;;;0.10;0.10;;;;;;;;;;5139674;27;20536;-53
2023/08/02 11:51:14;;;;;;;0.10;0.10;;;;;;;;;;5138567;27;20039;-53
2023/08/02 11:53:48;;;;;;;0.10;0.10;;;;;;;;;;5136342;27;20411;-53
2023/08/02 11:56:14;;;;;;;0.13;0.13;;;;;;;;;;5136163;27;20047;-53
2023/08/02 11:58:41;;;;;;;0.20;0.20;;;;;;;;;;5136170;27;20099;-54
2023/08/02 12:01:07;;;;;;;0.10;0.10;;;;;;;;;;5139178;27;20043;-53
2023/08/02 12:03:32;;;;;;;0.20;0.20;;;;;;;;;;5145284;27;20057;-53
2023/08/02 12:05:59;;;;;;;0.20;0.20;;;;;;;;;;5143716;27;20043;-53
2023/08/02 12:08:24;;;;;;;0.17;0.17;;;;;;;;;;5137539;27;20175;-54
2023/08/02 12:10:51;;;;;;;0.10;0.10;;;;;;;;;;5129809;27;20490;-53
2023/08/02 12:13:17;;;;;;;0.10;0.10;;;;;;;;;;5131918;28;20419;-53
2023/08/02 12:16:03;;;;;;;0.10;0.10;;;;;;;;;;5131599;28;20468;-52
2023/08/02 12:18:29;;;;;;;0.20;0.20;;;;;;;;;;5108674;28;20434;-54
2023/08/02 12:20:54;;;;;;;0.20;0.20;;;;;;;;;;5130540;27;20053;-53
2023/08/02 12:23:28;;;;;;;0.20;0.20;;;;;;;;;;5130267;28;20395;-53
2023/08/02 12:25:53;;;;;;;0.10;0.10;;;;;;;;;;5130899;28;20062;-54
2023/08/02 12:28:19;;;;;;;0.20;0.20;;;;;;;;;;5130169;28;20231;-52
2023/08/02 12:31:00;;;;;;;0.20;0.20;;;;;;;;;;5130387;28;20046;-54
2023/08/02 12:33:26;;;;;;;0.17;0.17;;;;;;;;;;5127410;27;20051;-52
2023/08/02 12:35:52;;;;;;;0.20;0.20;;;;;;;;;;5130803;28;20096;-53
2023/08/02 12:38:17;;;;;;;0.20;0.20;;;;;;;;;;5129139;28;20415;-54
2023/08/02 12:40:43;;;;;;;0.20;0.20;;;;;;;;;;5125362;28;20411;-50
2023/08/02 12:43:08;;;;;;;0.10;0.10;;;;;;;;;;5125362;28;20483;-53
2023/08/02 12:45:34;;;;;;;0.10;0.10;;;;;;;;;;5129264;28;20066;-53
2023/08/02 12:47:59;;;;;;;0.20;0.20;;;;;;;;;;5126734;27;20078;-48
2023/08/02 12:50:25;;;;;;;0.10;0.10;;;;;;;;;;5114292;28;20043;-53
2023/08/02 12:52:54;;;;;;;0.10;0.10;;;;;;;;;;5120004;28;20047;-53
2023/08/02 12:55:19;;;;;;;0.10;0.10;;;;;;;;;;5125485;28;20051;-54
2023/08/02 12:57:45;;;;;;;0.20;0.20;;;;;;;;;;5126457;28;20051;-54
2023/08/02 13:00:11;;;;;;;0.20;0.20;;;;;;;;;;5123602;28;20047;-53
2023/08/02 13:02:38;;;;;;;0.10;0.10;;;;;;;;;;5128476;28;20046;-48
2023/08/02 13:05:03;;;;;;;0.10;0.10;;;;;;;;;;5129383;28;20491;-49
2023/08/02 13:07:29;;;;;;;0.13;0.13;;;;;;;;;;5127918;28;20054;-53
2023/08/02 13:10:08;;;;;;;0.10;0.10;;;;;;;;;;5129579;28;20106;-50
2023/08/02 13:12:35;;;;;;;0.20;0.20;;;;;;;;;;5130898;28;20540;-53
2023/08/02 13:15:03;;;;;;;0.10;0.10;;;;;;;;;;5130318;28;20046;-51
2023/08/02 13:17:31;;;;;;;0.17;0.17;;;;;;;;;;5128601;28;20051;-47
2023/08/02 13:19:56;;;;;;;0.10;0.10;;;;;;;;;;5114155;28;20113;-47
2023/08/02 13:22:22;;;;;;;0.20;0.20;;;;;;;;;;5131171;27;20047;-47
2023/08/02 13:24:48;;;;;;;0.10;0.10;;;;;;;;;;5128472;28;20093;-46
2023/08/02 13:27:13;;;;;;;0.20;0.20;;;;;;;;;;5124279;28;20517;-47
2023/08/02 13:29:39;;;;;;;0.20;0.20;;;;;;;;;;5130920;28;20053;-47
2023/08/02 13:32:04;;;;;;;0.20;0.20;;;;;;;;;;5122937;27;20139;-46
2023/08/02 13:34:30;;;;;;;0.13;0.13;;;;;;;;;;5127933;28;20072;-46
2023/08/02 13:36:55;;;;;;;0.10;0.10;;;;;;;;;;5130060;28;20070;-47
2023/08/02 13:39:21;;;;;;;0.20;0.20;;;;;;;;;;5129800;28;20055;-45
2023/08/02 13:41:46;;;;;;;0.20;0.20;;;;;;;;;;5130741;28;20046;-46
2023/08/02 13:44:14;;;;;;;0.20;0.20;;;;;;;;;;5131490;28;20043;-47
2023/08/02 13:46:40;;;;;;;0.10;0.10;;;;;;;;;;5131805;28;20313;-46
2023/08/02 13:49:06;;;;;;;0.10;0.10;;;;;;;;;;5132425;28;20047;-47
2023/08/02 13:51:33;;;;;;;0.10;0.10;;;;;;;;;;5127587;28;20054;-47
2023/08/02 13:53:59;;;;;;;0.20;0.20;;;;;;;;;;5131495;28;20047;-47
2023/08/02 13:56:26;;;;;;;0.10;0.10;;;;;;;;;;5130914;28;20129;-47
2023/08/02 13:58:52;;;;;;;0.10;0.10;;;;;;;;;;5128027;27;20063;-47
2023/08/02 14:01:17;;;;;;;0.10;0.10;;;;;;;;;;5128468;28;20051;-47
2023/08/02 14:03:43;;;;;;;0.20;0.20;;;;;;;;;;5131699;28;20445;-46
2023/08/02 14:06:08;;;;;;;0.10;0.10;;;;;;;;;;5132637;28;20043;-47
2023/08/02 14:08:34;;;;;;;0.20;0.20;;;;;;;;;;5132060;28;20046;-46
2023/08/02 14:11:00;;;;;;;0.10;0.10;;;;;;;;;;5099894;28;20040;-46
2023/08/02 14:13:25;;;;;;;0.10;0.10;;;;;;;;;;5090807;28;20051;-47
2023/08/02 14:15:51;;;;;;;0.10;0.10;;;;;;;;;;5090975;28;20161;-47
2023/08/02 14:18:16;;;;;;;0.10;0.10;;;;;;;;;;5123674;28;20474;-47
2023/08/02 14:20:42;;;;;;;0.10;0.10;;;;;;;;;;5130895;28;20494;-47
2023/08/02 14:23:07;;;;;;;0.20;0.20;;;;;;;;;;5129507;28;20251;-46
2023/08/02 14:25:33;;;;;;;0.10;0.10;;;;;;;;;;5123414;28;20100;-46
2023/08/02 14:27:58;;;;;;;0.10;0.10;;;;;;;;;;5125550;28;20046;-46
2023/08/02 14:30:24;;;;;;;0.17;0.17;;;;;;;;;;5128825;27;20054;-46
2023/08/02 14:32:49;;;;;;;0.10;0.10;;;;;;;;;;5139512;27;20039;-47
2023/08/02 14:35:15;;;;;;;0.20;0.20;;;;;;;;;;5126929;28;20054;-52
2023/08/02 14:37:41;;;;;;;0.10;0.10;;;;;;;;;;5130504;28;20065;-50
2023/08/02 14:40:07;;;;;;;0.10;0.10;;;;;;;;;;5128016;28;20051;-48
2023/08/02 14:42:33;;;;;;;0.20;0.20;;;;;;;;;;5124193;27;20055;-47